Главная страница
METAR-TAF:

METAR-TAF

Аэропорты :

Карлстад, Швеция

широта: 59-26-41N, долгота: 013-20-15E, высота над уровнем моря: 107 м

Текущие метеонаблюдения

Эта сводка был подготовлена 37 минут назад, в 09:20 UTC
Ветер 15 Узел от северно-северо-западный
Температура 4°C
Влажность 48%
Давление 1017 hPa
Видимость 10 км и более
небольшая облачность на высоте 4700 фута

METAR: ESOK 260920Z 33015KT 9999 FEW047 04/M06 Q1017

Время: 10:57 (09:57 UTC)

Прогноз

Эта сводка был подготовлена 1 час и 27 минут назад, в 08:30 UTC
Прогноз действительный с 26-го 09 UTC до 26-го 18 UTC
Ветер 12 Узел от северо-западный
Видимость 10 км и более
Нет облачности ниже 1500 м, и нет кучево-дождевой облачности

TAF: ESOK 260830Z 2609/2618 31012KT CAVOK

Метеонаблюдения и прогнозы для более 4000 аэропортов (сводки METAR и TAF).

Имеющиеся станции представлены на карте желтыми и красными точками.

Чтобы увидеть название станции, наведите на нее мышь.

Затем щелкните, чтобы увидеть метеонаблюдения и метеопрогнозы.

Управление картой: чтобы увеличить масштаб, щелкните зеленые кнопки с черным крестиком; чтобы уменьшить масштаб, щелкните зеленую кнопку с тире; для просмотра соседних карт щелкайте зеленые стрелки.


METAR-TAF: